TAF KCRE
AMD KCRE 081926Z 0819/0918 35004KT 5SM BR VCSH OVC007 TEMPO 0819/0821 2SM BR OVC004 FM082200 34004KT P6SM BKN006 OVC015 FM090400 01004KT P6SM SKC FM090800 02002KT 3SM BR SKC FM091300 05008KT P6SM SKC=
METAR KCRE
WC KCRE
WS KCRE
WV KCRE